Portada
METAR-TAF:

METAR-TAF

Aeroports :

Algesires, Espanya

latitud: 36-07-44N, longitud: 05-26-28W, altitud: 30 m

Observació

L'informe es va fer fa 20 minuts, a les 09:30 UTC
Vent 15 kt del Est, variant entre Nord-Est i Est/Sud-Est
Temperatura 21°C
Humitat 83%
Pressió 1023 hPa
Visibilitat 10 km o més
Escasses núvols a una alçada de 2400 ft

METAR: LEAG 260930Z AUTO 09015KT 050V120 9999 FEW024 21/18 Q1023

Hora: 11:50 (09:50 UTC)


TAF: manca

Observacions i pronòstics meteorològics de més de 4000 aeroports (METAR i TAF).

Les estacions disponibles són els punts grocs i vermells al mapa.

Posi el ratolí al punt desitjat per veure el nom de l'estació.

Feu clic per veure les observacions i els pronòstics meteorològics.

Per canviar el mapa: feu clic els botons verds amb una creu de color negre per apropar; al botó verd amb un guió per allunyar la imatge; o en les fletxes verdes per a mapes adjacents.


METAR-TAF: